Time,TemperatureF,DewpointF,PressureIn,WindDirection,WindDirectionDegrees,WindSpeedMPH,WindSpeedGustMPH,Humidity,HourlyPrecipIn,Conditions,Clouds,dailyrainin,SolarRadiationWatts/m^2,SoftwareType,DateUTC
2013-02-18 00:21:00,34.0,8.0,-100.00,NW,313,6.0,14.0,33,-99.99,,,0.00,0.000000,,2013-02-18 07:21:00,
2013-02-18 01:21:00,32.0,9.0,-100.00,NW,312,4.0,10.0,38,-99.99,,,0.00,0.000000,,2013-02-18 08:21:00,
2013-02-18 02:22:00,31.0,15.0,-100.00,NW,321,6.0,13.0,50,-99.99,,,0.00,0.000000,,2013-02-18 09:22:00,
2013-02-18 03:21:00,28.0,14.0,-100.00,NW,323,3.0,8.0,55,-99.99,,,0.00,0.000000,,2013-02-18 10:21:00,
2013-02-18 04:21:00,24.0,13.0,-100.00,ESE,112,2.0,6.0,61,0.00,,,0.00,0.000000,,2013-02-18 11:21:00,
2013-02-18 04:32:00,24.0,13.0,-100.00,ESE,112,2.0,6.0,61,0.00,,,0.00,0.000000,,2013-02-18 11:32:00,
2013-02-18 04:42:00,24.0,13.0,-100.00,ESE,112,2.0,6.0,61,0.00,,,0.00,0.000000,,2013-02-18 11:42:00,
2013-02-18 04:52:00,24.0,13.0,-100.00,ESE,112,2.0,6.0,61,0.00,,,0.00,0.000000,,2013-02-18 11:52:00,
2013-02-18 05:22:00,25.0,9.0,-100.00,NW,306,10.0,16.0,49,0.00,,,0.00,0.000000,,2013-02-18 12:22:00,
2013-02-18 05:32:00,25.0,9.0,-100.00,NW,306,10.0,16.0,49,0.00,,,0.00,0.000000,,2013-02-18 12:32:00,
2013-02-18 05:42:00,25.0,9.0,-100.00,NW,306,10.0,16.0,49,0.00,,,0.00,0.000000,,2013-02-18 12:42:00,
2013-02-18 05:52:00,25.0,9.0,-100.00,NW,306,10.0,16.0,49,0.00,,,0.00,0.000000,,2013-02-18 12:52:00,
2013-02-18 06:22:00,22.0,8.0,-100.00,NE,40,1.0,19.0,55,0.00,,,0.00,0.000000,,2013-02-18 13:22:00,
2013-02-18 06:32:00,22.0,8.0,-100.00,NE,40,1.0,19.0,55,0.00,,,0.00,0.000000,,2013-02-18 13:32:00,
2013-02-18 06:42:00,22.0,8.0,-100.00,NE,40,1.0,19.0,55,0.00,,,0.00,0.000000,,2013-02-18 13:42:00,
2013-02-18 06:52:00,22.0,8.0,-100.00,NE,40,1.0,19.0,55,0.00,,,0.00,0.000000,,2013-02-18 13:52:00,
2013-02-18 07:22:00,19.0,6.0,-100.00,NNE,22,6.0,8.0,57,0.00,,,0.00,1.000000,,2013-02-18 14:22:00,
2013-02-18 07:32:00,19.0,6.0,-100.00,NNE,22,6.0,8.0,57,0.00,,,0.00,1.000000,,2013-02-18 14:32:00,
2013-02-18 07:41:00,19.0,6.0,-100.00,NNE,22,6.0,8.0,57,0.00,,,0.00,1.000000,,2013-02-18 14:41:00,
2013-02-18 07:52:00,19.0,6.0,-100.00,NNE,22,6.0,8.0,57,0.00,,,0.00,1.000000,,2013-02-18 14:52:00,
2013-02-18 08:22:00,26.0,10.0,-100.00,SSE,151,3.0,8.0,50,0.00,,,0.00,72.000000,,2013-02-18 15:22:00,
2013-02-18 09:22:00,28.0,8.0,-100.00,WNW,288,3.0,6.0,43,-99.99,,,0.00,285.000000,,2013-02-18 16:22:00,
2013-02-18 09:42:00,28.0,8.0,-100.00,WNW,288,3.0,6.0,43,-99.99,,,0.00,285.000000,,2013-02-18 16:42:00,
2013-02-18 09:52:00,28.0,8.0,-100.00,WNW,288,3.0,6.0,43,-99.99,,,0.00,285.000000,,2013-02-18 16:52:00,
2013-02-18 10:22:00,32.0,10.0,-100.00,SE,125,5.0,11.0,40,0.00,,,0.00,480.000000,,2013-02-18 17:22:00,
2013-02-18 10:32:00,32.0,10.0,-100.00,SE,125,5.0,11.0,40,0.00,,,0.00,480.000000,,2013-02-18 17:32:00,
2013-02-18 10:42:00,32.0,10.0,-100.00,SE,125,5.0,11.0,40,0.00,,,0.00,480.000000,,2013-02-18 17:42:00,
2013-02-18 10:52:00,32.0,10.0,-100.00,SE,125,5.0,11.0,40,0.00,,,0.00,480.000000,,2013-02-18 17:52:00,
2013-02-18 11:22:00,33.0,8.0,-100.00,SSW,196,5.0,11.0,35,0.00,,,0.00,633.000000,,2013-02-18 18:22:00,
2013-02-18 11:32:00,33.0,8.0,-100.00,SSW,196,5.0,11.0,35,0.00,,,0.00,633.000000,,2013-02-18 18:32:00,
2013-02-18 11:42:00,33.0,8.0,-100.00,SSW,196,5.0,11.0,35,0.00,,,0.00,633.000000,,2013-02-18 18:42:00,
2013-02-18 11:52:00,33.0,8.0,-100.00,SSW,196,5.0,11.0,35,0.00,,,0.00,633.000000,,2013-02-18 18:52:00,
2013-02-18 12:22:00,36.0,3.0,-100.00,South,173,6.0,12.0,24,0.00,,,0.00,735.000000,,2013-02-18 19:22:00,
2013-02-18 12:33:00,36.0,3.0,-100.00,South,173,6.0,12.0,24,0.00,,,0.00,735.000000,,2013-02-18 19:33:00,
2013-02-18 12:42:00,36.0,3.0,-100.00,South,173,6.0,12.0,24,0.00,,,0.00,735.000000,,2013-02-18 19:42:00,
2013-02-18 12:52:00,36.0,3.0,-100.00,South,173,6.0,12.0,24,0.00,,,0.00,735.000000,,2013-02-18 19:52:00,
2013-02-18 13:22:00,38.0,5.0,-100.00,SSW,194,6.0,13.0,25,0.00,,,-99.99,766.000000,,2013-02-18 20:22:00,
2013-02-18 13:32:00,38.0,5.0,-100.00,SSW,194,6.0,13.0,25,0.00,,,-99.99,766.000000,,2013-02-18 20:32:00,
2013-02-18 13:42:00,38.0,5.0,-100.00,SSW,194,6.0,13.0,25,0.00,,,-99.99,766.000000,,2013-02-18 20:42:00,
2013-02-18 13:52:00,38.0,5.0,-100.00,SSW,194,6.0,13.0,25,0.00,,,-99.99,766.000000,,2013-02-18 20:52:00,
2013-02-18 14:21:00,39.0,7.0,-100.00,South,178,7.0,16.0,26,0.00,,,0.00,730.000000,,2013-02-18 21:21:00,
2013-02-18 14:32:00,39.0,7.0,-100.00,South,178,7.0,16.0,26,0.00,,,0.00,730.000000,,2013-02-18 21:32:00,
2013-02-18 14:42:00,39.0,7.0,-100.00,South,178,7.0,16.0,26,0.00,,,0.00,730.000000,,2013-02-18 21:42:00,
2013-02-18 14:52:00,39.0,7.0,-100.00,South,178,7.0,16.0,26,0.00,,,0.00,730.000000,,2013-02-18 21:52:00,
2013-02-18 15:22:00,40.0,6.0,-100.00,South,170,8.0,16.0,24,0.00,,,0.00,636.000000,,2013-02-18 22:22:00,
2013-02-18 15:33:00,40.0,6.0,-100.00,South,170,8.0,16.0,24,0.00,,,0.00,636.000000,,2013-02-18 22:33:00,
2013-02-18 15:42:00,40.0,6.0,-100.00,South,170,8.0,16.0,24,0.00,,,0.00,636.000000,,2013-02-18 22:42:00,
2013-02-18 15:52:00,40.0,6.0,-100.00,South,170,8.0,16.0,24,0.00,,,0.00,636.000000,,2013-02-18 22:52:00,
2013-02-18 16:22:00,40.0,4.0,-100.00,South,184,6.0,16.0,22,0.00,,,0.00,467.000000,,2013-02-18 23:22:00,
2013-02-18 16:32:00,40.0,4.0,-100.00,South,184,6.0,16.0,22,0.00,,,0.00,467.000000,,2013-02-18 23:32:00,
2013-02-18 16:42:00,40.0,4.0,-100.00,South,184,6.0,16.0,22,0.00,,,0.00,467.000000,,2013-02-18 23:42:00,
2013-02-18 16:52:00,40.0,4.0,-100.00,South,184,6.0,16.0,22,0.00,,,0.00,467.000000,,2013-02-18 23:52:00,
2013-02-18 17:22:00,41.0,4.0,-100.00,SSW,204,4.0,10.0,21,0.00,,,0.00,298.000000,,2013-02-19 00:22:00,
2013-02-18 17:33:00,41.0,4.0,-100.00,SSW,204,4.0,10.0,21,0.00,,,0.00,298.000000,,2013-02-19 00:33:00,
2013-02-18 17:42:00,41.0,4.0,-100.00,SSW,204,4.0,10.0,21,0.00,,,0.00,298.000000,,2013-02-19 00:42:00,
2013-02-18 17:52:00,41.0,4.0,-100.00,SSW,204,4.0,10.0,21,0.00,,,0.00,298.000000,,2013-02-19 00:52:00,
2013-02-18 19:22:00,28.0,3.0,-100.00,NE,37,3.0,8.0,34,-99.99,,,0.00,0.000000,,2013-02-19 02:22:00,
2013-02-18 19:33:00,28.0,3.0,-100.00,NE,37,3.0,8.0,34,-99.99,,,0.00,0.000000,,2013-02-19 02:33:00,
2013-02-18 19:42:00,28.0,3.0,-100.00,NE,37,3.0,8.0,34,-99.99,,,0.00,0.000000,,2013-02-19 02:42:00,
2013-02-18 19:52:00,28.0,3.0,-100.00,NE,37,3.0,8.0,34,-99.99,,,0.00,0.000000,,2013-02-19 02:52:00,
2013-02-18 20:22:00,27.0,4.0,-100.00,NNE,18,4.0,8.0,36,0.00,,,0.00,0.000000,,2013-02-19 03:22:00,
2013-02-18 20:33:00,27.0,4.0,-100.00,NNE,18,4.0,8.0,36,0.00,,,0.00,0.000000,,2013-02-19 03:33:00,
2013-02-18 20:43:00,27.0,4.0,-100.00,NNE,18,4.0,8.0,36,0.00,,,0.00,0.000000,,2013-02-19 03:43:00,
2013-02-18 20:52:00,27.0,4.0,-100.00,NNE,18,4.0,8.0,36,0.00,,,0.00,0.000000,,2013-02-19 03:52:00,
2013-02-18 21:22:00,26.0,4.0,-100.00,North,9,4.0,7.0,38,0.00,,,0.00,0.000000,,2013-02-19 04:22:00,
2013-02-18 21:32:00,26.0,4.0,-100.00,North,9,4.0,7.0,38,0.00,,,0.00,0.000000,,2013-02-19 04:32:00,
2013-02-18 21:42:00,26.0,4.0,-100.00,North,9,4.0,7.0,38,0.00,,,0.00,0.000000,,2013-02-19 04:42:00,
2013-02-18 21:51:00,26.0,4.0,-100.00,North,9,4.0,7.0,38,0.00,,,0.00,0.000000,,2013-02-19 04:51:00,
2013-02-18 22:22:00,24.0,4.0,-100.00,NNE,19,6.0,9.0,41,0.00,,,0.00,0.000000,,2013-02-19 05:22:00,
2013-02-18 22:32:00,24.0,4.0,-100.00,NNE,19,6.0,9.0,41,0.00,,,0.00,0.000000,,2013-02-19 05:32:00,
2013-02-18 22:43:00,24.0,4.0,-100.00,NNE,19,6.0,9.0,41,0.00,,,0.00,0.000000,,2013-02-19 05:43:00,
2013-02-18 22:52:00,24.0,4.0,-100.00,NNE,19,6.0,9.0,41,0.00,,,0.00,0.000000,,2013-02-19 05:52:00,
2013-02-18 23:21:00,23.0,4.0,-100.00,NNE,12,5.0,8.0,43,-99.99,,,0.00,0.000000,,2013-02-19 06:21:00,
2013-02-18 23:32:00,23.0,4.0,-100.00,NNE,12,5.0,8.0,43,-99.99,,,0.00,0.000000,,2013-02-19 06:32:00,